sensor_id;sensor_type;location;lat;lon;timestamp;P1;durP1;ratioP1;P2;durP2;ratioP2
1074;SDS011;526;51.392;12.448;2023-07-20T04:02:56;1.90;;;1.80;;
1074;SDS011;526;51.392;12.448;2023-07-20T04:05:24;3.50;;;2.33;;
1074;SDS011;526;51.392;12.448;2023-07-20T04:07:56;2.80;;;2.60;;
1074;SDS011;526;51.392;12.448;2023-07-20T04:10:28;3.30;;;2.70;;
1074;SDS011;526;51.392;12.448;2023-07-20T04:12:56;1.60;;;1.50;;
1074;SDS011;526;51.392;12.448;2023-07-20T04:15:26;1.40;;;1.30;;
1074;SDS011;526;51.392;12.448;2023-07-20T04:17:52;2.23;;;2.03;;
1074;SDS011;526;51.392;12.448;2023-07-20T04:20:17;1.83;;;1.73;;
1074;SDS011;526;51.392;12.448;2023-07-20T04:22:43;2.63;;;2.50;;
1074;SDS011;526;51.392;12.448;2023-07-20T04:25:09;2.00;;;1.90;;
1074;SDS011;526;51.392;12.448;2023-07-20T04:27:35;2.50;;;2.30;;
1074;SDS011;526;51.392;12.448;2023-07-20T04:30:01;1.87;;;1.77;;
1074;SDS011;526;51.392;12.448;2023-07-20T04:32:27;4.50;;;3.10;;
1074;SDS011;526;51.392;12.448;2023-07-20T04:34:52;1.80;;;1.70;;
1074;SDS011;526;51.392;12.448;2023-07-20T04:37:18;1.80;;;1.70;;
1074;SDS011;526;51.392;12.448;2023-07-20T04:39:44;1.70;;;1.60;;
1074;SDS011;526;51.392;12.448;2023-07-20T04:42:10;1.53;;;1.33;;
1074;SDS011;526;51.392;12.448;2023-07-20T04:44:36;2.03;;;1.90;;
1074;SDS011;526;51.392;12.448;2023-07-20T04:47:01;2.10;;;1.60;;
1074;SDS011;526;51.392;12.448;2023-07-20T04:49:28;2.43;;;2.23;;
1074;SDS011;526;51.392;12.448;2023-07-20T04:51:54;2.17;;;2.00;;
1074;SDS011;526;51.392;12.448;2023-07-20T04:54:19;3.57;;;2.87;;
1074;SDS011;526;51.392;12.448;2023-07-20T04:56:45;2.93;;;2.73;;
1074;SDS011;526;51.392;12.448;2023-07-20T04:59:11;3.17;;;2.60;;
1074;SDS011;526;51.392;12.448;2023-07-20T05:01:36;9.47;;;3.50;;
1074;SDS011;526;51.392;12.448;2023-07-20T05:04:02;2.13;;;2.00;;
1074;SDS011;526;51.392;12.448;2023-07-20T05:06:27;1.40;;;1.30;;
1074;SDS011;526;51.392;12.448;2023-07-20T05:08:53;2.83;;;2.63;;
1074;SDS011;526;51.392;12.448;2023-07-20T05:11:19;1.70;;;1.60;;
1074;SDS011;526;51.392;12.448;2023-07-20T05:13:44;6.90;;;3.10;;
1074;SDS011;526;51.392;12.448;2023-07-20T05:16:11;5.53;;;1.73;;
1074;SDS011;526;51.392;12.448;2023-07-20T05:18:37;2.57;;;1.70;;
1074;SDS011;526;51.392;12.448;2023-07-20T05:21:03;2.53;;;2.37;;
1074;SDS011;526;51.392;12.448;2023-07-20T05:23:28;2.90;;;2.33;;
1074;SDS011;526;51.392;12.448;2023-07-20T05:25:54;1.87;;;1.80;;
1074;SDS011;526;51.392;12.448;2023-07-20T05:28:21;3.30;;;2.43;;
1074;SDS011;526;51.392;12.448;2023-07-20T05:30:47;2.13;;;1.97;;
1074;SDS011;526;51.392;12.448;2023-07-20T05:33:12;1.87;;;1.77;;
1074;SDS011;526;51.392;12.448;2023-07-20T05:35:38;2.40;;;1.90;;
1074;SDS011;526;51.392;12.448;2023-07-20T05:38:04;2.10;;;1.90;;
1074;SDS011;526;51.392;12.448;2023-07-20T05:40:31;2.33;;;2.13;;
1074;SDS011;526;51.392;12.448;2023-07-20T05:42:57;1.83;;;1.73;;
1074;SDS011;526;51.392;12.448;2023-07-20T05:45:23;13.97;;;1.90;;
1074;SDS011;526;51.392;12.448;2023-07-20T05:47:49;7.00;;;2.23;;
1074;SDS011;526;51.392;12.448;2023-07-20T05:50:15;19.37;;;1.90;;
1074;SDS011;526;51.392;12.448;2023-07-20T05:52:40;2.40;;;2.20;;
1074;SDS011;526;51.392;12.448;2023-07-20T05:55:06;4.30;;;3.17;;
1074;SDS011;526;51.392;12.448;2023-07-20T05:57:32;31.47;;;3.13;;
1074;SDS011;526;51.392;12.448;2023-07-20T05:59:58;3.00;;;2.10;;
1074;SDS011;526;51.392;12.448;2023-07-20T06:02:24;2.53;;;2.27;;
1074;SDS011;526;51.392;12.448;2023-07-20T06:04:49;1.90;;;1.83;;
1074;SDS011;526;51.392;12.448;2023-07-20T06:07:15;10.43;;;3.13;;
1074;SDS011;526;51.392;12.448;2023-07-20T06:09:41;15.93;;;1.93;;
1074;SDS011;526;51.392;12.448;2023-07-20T06:12:06;2.80;;;2.47;;
1074;SDS011;526;51.392;12.448;2023-07-20T06:14:33;3.10;;;2.70;;
1074;SDS011;526;51.392;12.448;2023-07-20T06:16:58;4.57;;;2.60;;
1074;SDS011;526;51.392;12.448;2023-07-20T06:19:24;5.33;;;2.67;;
1074;SDS011;526;51.392;12.448;2023-07-20T06:21:50;2.40;;;2.20;;
1074;SDS011;526;51.392;12.448;2023-07-20T06:24:16;3.07;;;1.90;;
1074;SDS011;526;51.392;12.448;2023-07-20T06:26:42;1.30;;;1.27;;
1074;SDS011;526;51.392;12.448;2023-07-20T06:29:08;1.53;;;1.43;;
1074;SDS011;526;51.392;12.448;2023-07-20T06:31:36;5.03;;;1.40;;
1074;SDS011;526;51.392;12.448;2023-07-20T06:34:02;1.70;;;1.60;;
1074;SDS011;526;51.392;12.448;2023-07-20T06:36:28;1.53;;;1.43;;
1074;SDS011;526;51.392;12.448;2023-07-20T06:38:54;1.40;;;1.40;;
1074;SDS011;526;51.392;12.448;2023-07-20T06:41:20;1.40;;;1.30;;
1074;SDS011;526;51.392;12.448;2023-07-20T06:43:46;2.47;;;2.10;;
1074;SDS011;526;51.392;12.448;2023-07-20T06:46:12;2.50;;;1.77;;
1074;SDS011;526;51.392;12.448;2023-07-20T06:48:37;2.00;;;1.90;;
1074;SDS011;526;51.392;12.448;2023-07-20T06:51:03;3.47;;;2.07;;
1074;SDS011;526;51.392;12.448;2023-07-20T06:53:29;1.77;;;1.63;;
1074;SDS011;526;51.392;12.448;2023-07-20T06:55:55;2.73;;;1.60;;
1074;SDS011;526;51.392;12.448;2023-07-20T06:58:22;1.60;;;1.50;;
1074;SDS011;526;51.392;12.448;2023-07-20T07:00:48;3.50;;;2.00;;
1074;SDS011;526;51.392;12.448;2023-07-20T07:03:14;4.77;;;2.83;;
1074;SDS011;526;51.392;12.448;2023-07-20T07:05:39;1.60;;;1.50;;
1074;SDS011;526;51.392;12.448;2023-07-20T07:08:05;3.50;;;1.87;;
1074;SDS011;526;51.392;12.448;2023-07-20T07:10:31;1.37;;;1.10;;
1074;SDS011;526;51.392;12.448;2023-07-20T07:12:57;2.73;;;2.50;;
1074;SDS011;526;51.392;12.448;2023-07-20T07:15:22;1.60;;;1.50;;
1074;SDS011;526;51.392;12.448;2023-07-20T07:17:48;1.80;;;1.70;;
1074;SDS011;526;51.392;12.448;2023-07-20T07:20:14;5.87;;;1.70;;
1074;SDS011;526;51.392;12.448;2023-07-20T07:22:40;2.20;;;1.93;;
1074;SDS011;526;51.392;12.448;2023-07-20T07:25:10;3.67;;;2.50;;
1074;SDS011;526;51.392;12.448;2023-07-20T07:27:35;2.77;;;1.80;;
1074;SDS011;526;51.392;12.448;2023-07-20T07:30:02;2.43;;;2.23;;
1074;SDS011;526;51.392;12.448;2023-07-20T07:32:28;1.80;;;1.50;;
1074;SDS011;526;51.392;12.448;2023-07-20T07:34:54;3.43;;;2.30;;
1074;SDS011;526;51.392;12.448;2023-07-20T07:37:20;1.83;;;1.67;;
1074;SDS011;526;51.392;12.448;2023-07-20T07:39:45;1.73;;;1.63;;
1074;SDS011;526;51.392;12.448;2023-07-20T07:42:11;2.00;;;1.47;;
1074;SDS011;526;51.392;12.448;2023-07-20T07:44:38;3.60;;;2.83;;
1074;SDS011;526;51.392;12.448;2023-07-20T07:47:03;1.40;;;1.30;;
1074;SDS011;526;51.392;12.448;2023-07-20T07:49:29;1.93;;;1.40;;
1074;SDS011;526;51.392;12.448;2023-07-20T07:51:56;1.40;;;1.27;;
1074;SDS011;526;51.392;12.448;2023-07-20T07:54:21;2.20;;;1.80;;
1074;SDS011;526;51.392;12.448;2023-07-20T07:56:47;1.77;;;1.70;;
1074;SDS011;526;51.392;12.448;2023-07-20T07:59:13;27.23;;;2.17;;
1074;SDS011;526;51.392;12.448;2023-07-20T08:01:38;2.70;;;2.07;;
1074;SDS011;526;51.392;12.448;2023-07-20T08:04:04;1.50;;;1.40;;
1074;SDS011;526;51.392;12.448;2023-07-20T08:06:29;3.57;;;2.37;;
1074;SDS011;526;51.392;12.448;2023-07-20T08:08:56;1.40;;;1.30;;
1074;SDS011;526;51.392;12.448;2023-07-20T08:11:23;1.53;;;1.47;;
1074;SDS011;526;51.392;12.448;2023-07-20T08:13:48;1.60;;;1.40;;
1074;SDS011;526;51.392;12.448;2023-07-20T08:16:14;2.17;;;1.70;;
1074;SDS011;526;51.392;12.448;2023-07-20T08:18:40;4.50;;;2.30;;
1074;SDS011;526;51.392;12.448;2023-07-20T08:21:05;3.43;;;2.30;;
1074;SDS011;526;51.392;12.448;2023-07-20T08:23:31;2.30;;;2.13;;
1074;SDS011;526;51.392;12.448;2023-07-20T08:25:56;2.33;;;2.13;;
1074;SDS011;526;51.392;12.448;2023-07-20T08:28:22;4.20;;;2.80;;
1074;SDS011;526;51.392;12.448;2023-07-20T08:30:48;2.63;;;2.43;;
1074;SDS011;526;51.392;12.448;2023-07-20T08:33:14;2.27;;;2.13;;
1074;SDS011;526;51.392;12.448;2023-07-20T08:35:44;1.83;;;1.73;;
1074;SDS011;526;51.392;12.448;2023-07-20T08:38:11;1.97;;;1.87;;
1074;SDS011;526;51.392;12.448;2023-07-20T08:40:41;2.60;;;2.17;;
1074;SDS011;526;51.392;12.448;2023-07-20T08:43:08;1.80;;;1.70;;
1074;SDS011;526;51.392;12.448;2023-07-20T08:45:38;3.13;;;1.80;;
1074;SDS011;526;51.392;12.448;2023-07-20T08:48:06;2.97;;;2.33;;
1074;SDS011;526;51.392;12.448;2023-07-20T08:50:33;1.90;;;1.80;;
1074;SDS011;526;51.392;12.448;2023-07-20T08:52:59;1.10;;;1.00;;
1074;SDS011;526;51.392;12.448;2023-07-20T08:55:26;1.20;;;1.17;;
1074;SDS011;526;51.392;12.448;2023-07-20T08:57:55;3.47;;;1.70;;
1074;SDS011;526;51.392;12.448;2023-07-20T09:00:22;1.93;;;1.83;;
1074;SDS011;526;51.392;12.448;2023-07-20T09:02:52;2.40;;;2.20;;
1074;SDS011;526;51.392;12.448;2023-07-20T09:05:19;2.40;;;2.23;;
1074;SDS011;526;51.392;12.448;2023-07-20T09:07:45;2.33;;;2.13;;
1074;SDS011;526;51.392;12.448;2023-07-20T09:10:11;3.37;;;3.03;;
1074;SDS011;526;51.392;12.448;2023-07-20T09:12:41;3.70;;;2.93;;
1074;SDS011;526;51.392;12.448;2023-07-20T09:15:08;2.03;;;1.87;;
1074;SDS011;526;51.392;12.448;2023-07-20T09:17:35;4.53;;;2.40;;
1074;SDS011;526;51.392;12.448;2023-07-20T09:20:04;2.33;;;2.13;;
1074;SDS011;526;51.392;12.448;2023-07-20T09:22:39;1.50;;;1.40;;
1074;SDS011;526;51.392;12.448;2023-07-20T09:25:11;5.07;;;2.63;;
1074;SDS011;526;51.392;12.448;2023-07-20T09:27:44;2.30;;;2.10;;
1074;SDS011;526;51.392;12.448;2023-07-20T09:30:11;1.90;;;1.43;;
1074;SDS011;526;51.392;12.448;2023-07-20T09:32:40;3.07;;;2.87;;
1074;SDS011;526;51.392;12.448;2023-07-20T09:35:13;3.10;;;2.10;;
1074;SDS011;526;51.392;12.448;2023-07-20T09:37:49;2.97;;;1.87;;
1074;SDS011;526;51.392;12.448;2023-07-20T09:40:19;3.07;;;2.87;;
1074;SDS011;526;51.392;12.448;2023-07-20T09:42:45;1.90;;;1.80;;
1074;SDS011;526;51.392;12.448;2023-07-20T09:45:11;10.50;;;1.70;;
1074;SDS011;526;51.392;12.448;2023-07-20T09:47:37;1.70;;;1.60;;
1074;SDS011;526;51.392;12.448;2023-07-20T09:50:04;2.60;;;2.33;;
1074;SDS011;526;51.392;12.448;2023-07-20T09:52:35;2.23;;;2.03;;
1074;SDS011;526;51.392;12.448;2023-07-20T09:55:02;2.77;;;2.57;;
1074;SDS011;526;51.392;12.448;2023-07-20T09:57:28;1.97;;;1.70;;
1074;SDS011;526;51.392;12.448;2023-07-20T09:59:55;5.30;;;3.10;;
1074;SDS011;526;51.392;12.448;2023-07-20T10:02:24;3.87;;;2.90;;
1074;SDS011;526;51.392;12.448;2023-07-20T10:04:53;3.27;;;2.23;;
1074;SDS011;526;51.392;12.448;2023-07-20T10:07:19;3.60;;;3.20;;
1074;SDS011;526;51.392;12.448;2023-07-20T10:09:48;3.10;;;2.50;;
1074;SDS011;526;51.392;12.448;2023-07-20T10:12:17;2.70;;;1.83;;
1074;SDS011;526;51.392;12.448;2023-07-20T10:14:46;4.83;;;3.37;;
1074;SDS011;526;51.392;12.448;2023-07-20T10:17:23;3.13;;;2.93;;
1074;SDS011;526;51.392;12.448;2023-07-20T10:19:51;8.27;;;3.40;;
1074;SDS011;526;51.392;12.448;2023-07-20T10:22:25;2.67;;;2.47;;
1074;SDS011;526;51.392;12.448;2023-07-20T10:24:52;2.10;;;1.43;;
1074;SDS011;526;51.392;12.448;2023-07-20T10:27:19;1.63;;;1.53;;
1074;SDS011;526;51.392;12.448;2023-07-20T10:29:45;2.00;;;1.90;;
1074;SDS011;526;51.392;12.448;2023-07-20T10:32:12;1.43;;;1.33;;
1074;SDS011;526;51.392;12.448;2023-07-20T10:34:38;6.10;;;1.60;;
1074;SDS011;526;51.392;12.448;2023-07-20T10:37:04;9.43;;;1.83;;
1074;SDS011;526;51.392;12.448;2023-07-20T10:39:31;4.53;;;2.30;;
1074;SDS011;526;51.392;12.448;2023-07-20T10:42:06;2.20;;;1.93;;
1074;SDS011;526;51.392;12.448;2023-07-20T10:44:32;3.47;;;2.83;;
1074;SDS011;526;51.392;12.448;2023-07-20T10:46:59;3.00;;;2.37;;
1074;SDS011;526;51.392;12.448;2023-07-20T10:49:26;4.43;;;2.43;;
1074;SDS011;526;51.392;12.448;2023-07-20T10:51:56;2.20;;;2.00;;
1074;SDS011;526;51.392;12.448;2023-07-20T10:56:52;7.47;;;1.87;;
1074;SDS011;526;51.392;12.448;2023-07-20T10:59:41;2.67;;;1.40;;
1074;SDS011;526;51.392;12.448;2023-07-20T11:02:06;3.57;;;1.67;;
1074;SDS011;526;51.392;12.448;2023-07-20T11:04:39;1.90;;;1.73;;
1074;SDS011;526;51.392;12.448;2023-07-20T11:07:06;3.80;;;2.33;;
1074;SDS011;526;51.392;12.448;2023-07-20T11:09:35;4.30;;;2.50;;
1074;SDS011;526;51.392;12.448;2023-07-20T11:12:20;2.50;;;2.17;;
1074;SDS011;526;51.392;12.448;2023-07-20T11:14:56;2.83;;;2.50;;
1074;SDS011;526;51.392;12.448;2023-07-20T11:17:29;1.53;;;1.43;;
1074;SDS011;526;51.392;12.448;2023-07-20T11:19:56;5.77;;;3.10;;
1074;SDS011;526;51.392;12.448;2023-07-20T11:22:23;2.33;;;1.70;;
1074;SDS011;526;51.392;12.448;2023-07-20T11:24:49;1.57;;;1.47;;
1074;SDS011;526;51.392;12.448;2023-07-20T11:27:15;1.87;;;1.60;;
1074;SDS011;526;51.392;12.448;2023-07-20T11:29:41;2.63;;;1.80;;
1074;SDS011;526;51.392;12.448;2023-07-20T11:32:06;2.83;;;2.53;;
1074;SDS011;526;51.392;12.448;2023-07-20T11:34:33;1.40;;;1.30;;
1074;SDS011;526;51.392;12.448;2023-07-20T11:36:59;2.47;;;1.90;;
1074;SDS011;526;51.392;12.448;2023-07-20T11:39:25;1.97;;;1.60;;
1074;SDS011;526;51.392;12.448;2023-07-20T11:41:52;2.23;;;1.97;;
1074;SDS011;526;51.392;12.448;2023-07-20T11:44:21;2.67;;;2.47;;
1074;SDS011;526;51.392;12.448;2023-07-20T11:49:29;2.33;;;2.13;;
1074;SDS011;526;51.392;12.448;2023-07-20T11:51:55;1.70;;;1.60;;
1074;SDS011;526;51.392;12.448;2023-07-20T11:54:22;1.80;;;1.63;;
1074;SDS011;526;51.392;12.448;2023-07-20T11:56:49;1.67;;;1.57;;
1074;SDS011;526;51.392;12.448;2023-07-20T11:59:19;1.90;;;1.50;;
1074;SDS011;526;51.392;12.448;2023-07-20T12:01:44;1.90;;;1.83;;
1074;SDS011;526;51.392;12.448;2023-07-20T12:04:10;12.43;;;1.97;;
1074;SDS011;526;51.392;12.448;2023-07-20T12:06:36;1.43;;;1.33;;
1074;SDS011;526;51.392;12.448;2023-07-20T12:09:01;2.07;;;1.83;;
1074;SDS011;526;51.392;12.448;2023-07-20T12:11:31;7.90;;;1.80;;
1074;SDS011;526;51.392;12.448;2023-07-20T12:14:03;1.50;;;1.40;;
1074;SDS011;526;51.392;12.448;2023-07-20T12:16:32;1.63;;;1.40;;
1074;SDS011;526;51.392;12.448;2023-07-20T12:19:01;1.53;;;1.50;;
1074;SDS011;526;51.392;12.448;2023-07-20T12:21:29;1.30;;;1.20;;
1074;SDS011;526;51.392;12.448;2023-07-20T12:23:55;1.67;;;1.43;;
1074;SDS011;526;51.392;12.448;2023-07-20T12:26:23;1.33;;;1.23;;
1074;SDS011;526;51.392;12.448;2023-07-20T12:28:50;1.40;;;1.30;;
1074;SDS011;526;51.392;12.448;2023-07-20T12:31:16;1.63;;;1.53;;
1074;SDS011;526;51.392;12.448;2023-07-20T12:33:42;1.00;;;0.90;;
1074;SDS011;526;51.392;12.448;2023-07-20T12:36:08;7.70;;;2.13;;
1074;SDS011;526;51.392;12.448;2023-07-20T12:38:34;1.43;;;1.40;;
1074;SDS011;526;51.392;12.448;2023-07-20T12:41:00;2.20;;;1.10;;
1074;SDS011;526;51.392;12.448;2023-07-20T12:43:27;2.73;;;1.30;;
1074;SDS011;526;51.392;12.448;2023-07-20T12:45:53;1.50;;;1.40;;
1074;SDS011;526;51.392;12.448;2023-07-20T12:48:19;1.10;;;1.03;;
1074;SDS011;526;51.392;12.448;2023-07-20T12:50:45;1.10;;;1.00;;
1074;SDS011;526;51.392;12.448;2023-07-20T12:53:11;1.40;;;1.30;;
1074;SDS011;526;51.392;12.448;2023-07-20T12:55:37;1.30;;;1.20;;
1074;SDS011;526;51.392;12.448;2023-07-20T12:58:04;1.30;;;1.20;;
1074;SDS011;526;51.392;12.448;2023-07-20T13:00:30;1.00;;;0.90;;
1074;SDS011;526;51.392;12.448;2023-07-20T13:02:56;1.53;;;1.40;;
1074;SDS011;526;51.392;12.448;2023-07-20T13:05:22;4.00;;;1.47;;
1074;SDS011;526;51.392;12.448;2023-07-20T13:07:48;4.50;;;1.33;;
1074;SDS011;526;51.392;12.448;2023-07-20T13:10:14;0.97;;;0.90;;
1074;SDS011;526;51.392;12.448;2023-07-20T13:12:40;1.30;;;1.20;;
1074;SDS011;526;51.392;12.448;2023-07-20T13:15:06;1.30;;;1.20;;
1074;SDS011;526;51.392;12.448;2023-07-20T13:17:33;1.30;;;1.20;;
1074;SDS011;526;51.392;12.448;2023-07-20T13:20:01;1.10;;;1.00;;
1074;SDS011;526;51.392;12.448;2023-07-20T13:22:29;1.27;;;1.20;;
1074;SDS011;526;51.392;12.448;2023-07-20T13:24:55;1.03;;;0.93;;
1074;SDS011;526;51.392;12.448;2023-07-20T13:27:21;1.00;;;0.90;;
1074;SDS011;526;51.392;12.448;2023-07-20T13:29:47;2.93;;;1.50;;
1074;SDS011;526;51.392;12.448;2023-07-20T13:32:14;1.00;;;0.90;;
1074;SDS011;526;51.392;12.448;2023-07-20T13:34:40;1.60;;;1.40;;
1074;SDS011;526;51.392;12.448;2023-07-20T13:37:07;0.90;;;0.90;;
1074;SDS011;526;51.392;12.448;2023-07-20T13:39:34;1.30;;;1.23;;
1074;SDS011;526;51.392;12.448;2023-07-20T13:42:00;3.13;;;1.93;;
1074;SDS011;526;51.392;12.448;2023-07-20T13:44:29;1.63;;;1.43;;
1074;SDS011;526;51.392;12.448;2023-07-20T13:46:54;3.27;;;2.57;;
1074;SDS011;526;51.392;12.448;2023-07-20T13:49:20;2.90;;;1.90;;
1074;SDS011;526;51.392;12.448;2023-07-20T13:51:45;2.30;;;2.10;;
1074;SDS011;526;51.392;12.448;2023-07-20T13:54:12;2.23;;;1.70;;
1074;SDS011;526;51.392;12.448;2023-07-20T13:56:37;2.07;;;1.93;;
1074;SDS011;526;51.392;12.448;2023-07-20T13:59:03;2.80;;;2.20;;
1074;SDS011;526;51.392;12.448;2023-07-20T14:01:28;2.60;;;1.93;;
1074;SDS011;526;51.392;12.448;2023-07-20T14:03:56;1.43;;;1.33;;
1074;SDS011;526;51.392;12.448;2023-07-20T14:06:22;2.37;;;2.13;;
1074;SDS011;526;51.392;12.448;2023-07-20T14:08:47;1.43;;;1.33;;
1074;SDS011;526;51.392;12.448;2023-07-20T14:11:14;1.60;;;1.50;;
1074;SDS011;526;51.392;12.448;2023-07-20T14:13:41;4.33;;;1.93;;
1074;SDS011;526;51.392;12.448;2023-07-20T14:16:06;3.37;;;2.03;;
1074;SDS011;526;51.392;12.448;2023-07-20T14:18:33;1.70;;;1.60;;
1074;SDS011;526;51.392;12.448;2023-07-20T14:20:58;1.60;;;1.20;;
1074;SDS011;526;51.392;12.448;2023-07-20T14:23:24;1.40;;;1.30;;
1074;SDS011;526;51.392;12.448;2023-07-20T14:25:50;1.00;;;0.90;;
1074;SDS011;526;51.392;12.448;2023-07-20T14:28:15;1.50;;;1.43;;
1074;SDS011;526;51.392;12.448;2023-07-20T14:30:41;2.27;;;1.40;;
1074;SDS011;526;51.392;12.448;2023-07-20T14:33:07;1.87;;;1.77;;
1074;SDS011;526;51.392;12.448;2023-07-20T14:35:33;1.43;;;1.40;;
1074;SDS011;526;51.392;12.448;2023-07-20T14:37:59;1.57;;;0.90;;
1074;SDS011;526;51.392;12.448;2023-07-20T14:40:25;1.27;;;1.17;;
1074;SDS011;526;51.392;12.448;2023-07-20T14:42:51;2.00;;;1.90;;
1074;SDS011;526;51.392;12.448;2023-07-20T14:45:17;1.40;;;1.30;;
1074;SDS011;526;51.392;12.448;2023-07-20T14:47:43;3.57;;;1.53;;
1074;SDS011;526;51.392;12.448;2023-07-20T14:50:10;2.20;;;1.73;;
1074;SDS011;526;51.392;12.448;2023-07-20T14:52:35;2.73;;;1.60;;
1074;SDS011;526;51.392;12.448;2023-07-20T14:55:01;1.33;;;1.23;;
1074;SDS011;526;51.392;12.448;2023-07-20T14:57:27;1.77;;;1.40;;
1074;SDS011;526;51.392;12.448;2023-07-20T14:59:52;1.40;;;1.30;;
1074;SDS011;526;51.392;12.448;2023-07-20T15:02:18;1.70;;;1.70;;
1074;SDS011;526;51.392;12.448;2023-07-20T15:04:47;1.10;;;1.00;;
1074;SDS011;526;51.392;12.448;2023-07-20T15:07:17;1.20;;;1.10;;
1074;SDS011;526;51.392;12.448;2023-07-20T15:09:44;2.83;;;1.80;;
1074;SDS011;526;51.392;12.448;2023-07-20T15:12:10;1.53;;;1.43;;
1074;SDS011;526;51.392;12.448;2023-07-20T15:14:35;1.43;;;1.40;;
1074;SDS011;526;51.392;12.448;2023-07-20T15:17:05;1.77;;;1.67;;
1074;SDS011;526;51.392;12.448;2023-07-20T15:19:30;2.00;;;1.83;;
1074;SDS011;526;51.392;12.448;2023-07-20T15:21:56;1.23;;;1.13;;
1074;SDS011;526;51.392;12.448;2023-07-20T15:24:21;3.17;;;1.60;;
1074;SDS011;526;51.392;12.448;2023-07-20T15:26:47;1.83;;;1.20;;
1074;SDS011;526;51.392;12.448;2023-07-20T15:29:13;1.10;;;1.00;;
1074;SDS011;526;51.392;12.448;2023-07-20T15:31:38;1.00;;;0.90;;
1074;SDS011;526;51.392;12.448;2023-07-20T15:34:04;1.10;;;1.00;;
1074;SDS011;526;51.392;12.448;2023-07-20T15:36:29;1.10;;;1.00;;
1074;SDS011;526;51.392;12.448;2023-07-20T15:38:56;1.10;;;1.00;;
1074;SDS011;526;51.392;12.448;2023-07-20T15:41:21;1.10;;;1.00;;
1074;SDS011;526;51.392;12.448;2023-07-20T15:43:47;1.63;;;1.57;;
1074;SDS011;526;51.392;12.448;2023-07-20T15:48:48;0.97;;;0.90;;
1074;SDS011;526;51.392;12.448;2023-07-20T15:51:14;1.60;;;1.00;;
1074;SDS011;526;51.392;12.448;2023-07-20T15:53:40;1.30;;;1.20;;
1074;SDS011;526;51.392;12.448;2023-07-20T15:56:05;1.27;;;1.27;;
1074;SDS011;526;51.392;12.448;2023-07-20T15:58:31;1.23;;;1.13;;
1074;SDS011;526;51.392;12.448;2023-07-20T16:00:58;1.20;;;1.10;;
1074;SDS011;526;51.392;12.448;2023-07-20T16:03:24;1.00;;;0.90;;
1074;SDS011;526;51.392;12.448;2023-07-20T16:05:52;1.93;;;1.23;;
1074;SDS011;526;51.392;12.448;2023-07-20T16:08:18;0.90;;;0.80;;
1074;SDS011;526;51.392;12.448;2023-07-20T16:10:43;1.03;;;0.97;;
1074;SDS011;526;51.392;12.448;2023-07-20T16:13:09;0.90;;;0.87;;
1074;SDS011;526;51.392;12.448;2023-07-20T16:15:35;1.00;;;0.90;;
1074;SDS011;526;51.392;12.448;2023-07-20T16:18:00;0.97;;;0.87;;
1074;SDS011;526;51.392;12.448;2023-07-20T16:20:28;1.30;;;1.20;;
1074;SDS011;526;51.392;12.448;2023-07-20T16:22:54;0.90;;;0.87;;
1074;SDS011;526;51.392;12.448;2023-07-20T16:25:30;0.93;;;0.83;;
1074;SDS011;526;51.392;12.448;2023-07-20T16:27:56;1.17;;;1.10;;
1074;SDS011;526;51.392;12.448;2023-07-20T16:30:24;1.87;;;1.07;;
1074;SDS011;526;51.392;12.448;2023-07-20T16:33:00;1.00;;;0.90;;
1074;SDS011;526;51.392;12.448;2023-07-20T16:35:26;1.00;;;0.90;;
1074;SDS011;526;51.392;12.448;2023-07-20T16:38:01;0.97;;;0.93;;
1074;SDS011;526;51.392;12.448;2023-07-20T16:40:27;0.70;;;0.70;;
1074;SDS011;526;51.392;12.448;2023-07-20T16:43:00;1.00;;;0.90;;
1074;SDS011;526;51.392;12.448;2023-07-20T16:45:28;1.53;;;1.23;;
1074;SDS011;526;51.392;12.448;2023-07-20T16:48:01;0.90;;;0.80;;
1074;SDS011;526;51.392;12.448;2023-07-20T16:50:38;1.00;;;0.90;;
1074;SDS011;526;51.392;12.448;2023-07-20T16:53:04;1.30;;;1.20;;
1074;SDS011;526;51.392;12.448;2023-07-20T16:55:31;1.50;;;1.43;;
1074;SDS011;526;51.392;12.448;2023-07-20T16:58:07;2.23;;;1.53;;
1074;SDS011;526;51.392;12.448;2023-07-20T17:00:35;1.17;;;1.07;;
1074;SDS011;526;51.392;12.448;2023-07-20T17:03:02;1.37;;;1.27;;
1074;SDS011;526;51.392;12.448;2023-07-20T17:05:28;1.03;;;0.93;;
1074;SDS011;526;51.392;12.448;2023-07-20T17:07:54;1.30;;;1.20;;
1074;SDS011;526;51.392;12.448;2023-07-20T17:10:21;1.30;;;1.20;;
1074;SDS011;526;51.392;12.448;2023-07-20T17:12:47;1.00;;;0.90;;
1074;SDS011;526;51.392;12.448;2023-07-20T17:15:13;1.10;;;1.10;;
1074;SDS011;526;51.392;12.448;2023-07-20T17:17:40;1.33;;;1.23;;
1074;SDS011;526;51.392;12.448;2023-07-20T17:20:07;1.30;;;1.20;;
1074;SDS011;526;51.392;12.448;2023-07-20T17:22:37;1.30;;;1.20;;
1074;SDS011;526;51.392;12.448;2023-07-20T17:25:03;1.87;;;1.37;;
1074;SDS011;526;51.392;12.448;2023-07-20T17:27:29;1.10;;;1.00;;
1074;SDS011;526;51.392;12.448;2023-07-20T17:29:55;0.90;;;0.80;;
1074;SDS011;526;51.392;12.448;2023-07-20T17:32:24;3.13;;;1.00;;
1074;SDS011;526;51.392;12.448;2023-07-20T17:34:49;3.80;;;1.20;;
1074;SDS011;526;51.392;12.448;2023-07-20T17:37:16;1.10;;;1.00;;
1074;SDS011;526;51.392;12.448;2023-07-20T17:39:51;1.50;;;1.40;;
1074;SDS011;526;51.392;12.448;2023-07-20T17:42:17;1.13;;;1.13;;
1074;SDS011;526;51.392;12.448;2023-07-20T17:44:51;2.60;;;1.27;;
1074;SDS011;526;51.392;12.448;2023-07-20T17:47:16;1.10;;;1.10;;
1074;SDS011;526;51.392;12.448;2023-07-20T17:49:44;1.40;;;1.10;;
1074;SDS011;526;51.392;12.448;2023-07-20T17:52:16;0.97;;;0.87;;
1074;SDS011;526;51.392;12.448;2023-07-20T17:54:45;1.00;;;0.90;;
1074;SDS011;526;51.392;12.448;2023-07-20T17:57:10;1.00;;;0.90;;
1074;SDS011;526;51.392;12.448;2023-07-20T17:59:36;1.93;;;1.17;;
1074;SDS011;526;51.392;12.448;2023-07-20T18:02:04;2.17;;;1.07;;
1074;SDS011;526;51.392;12.448;2023-07-20T18:04:30;1.03;;;0.93;;
1074;SDS011;526;51.392;12.448;2023-07-20T18:06:56;1.00;;;0.90;;
1074;SDS011;526;51.392;12.448;2023-07-20T18:09:26;1.10;;;1.00;;
1074;SDS011;526;51.392;12.448;2023-07-20T18:11:57;1.20;;;1.10;;
1074;SDS011;526;51.392;12.448;2023-07-20T18:14:25;1.00;;;0.90;;
1074;SDS011;526;51.392;12.448;2023-07-20T18:16:53;2.50;;;1.50;;
1074;SDS011;526;51.392;12.448;2023-07-20T18:19:18;1.30;;;1.20;;
1074;SDS011;526;51.392;12.448;2023-07-20T18:21:44;1.20;;;1.10;;
1074;SDS011;526;51.392;12.448;2023-07-20T18:24:12;2.03;;;1.43;;
1074;SDS011;526;51.392;12.448;2023-07-20T18:26:38;1.33;;;1.23;;
1074;SDS011;526;51.392;12.448;2023-07-20T18:29:03;1.20;;;1.10;;
1074;SDS011;526;51.392;12.448;2023-07-20T18:31:29;1.20;;;1.10;;
1074;SDS011;526;51.392;12.448;2023-07-20T18:33:54;1.10;;;1.10;;
1074;SDS011;526;51.392;12.448;2023-07-20T18:36:22;1.00;;;0.90;;
1074;SDS011;526;51.392;12.448;2023-07-20T18:38:48;0.90;;;0.80;;
1074;SDS011;526;51.392;12.448;2023-07-20T18:41:14;1.30;;;1.20;;
1074;SDS011;526;51.392;12.448;2023-07-20T18:43:41;1.40;;;1.00;;
1074;SDS011;526;51.392;12.448;2023-07-20T18:46:09;0.93;;;0.90;;
1074;SDS011;526;51.392;12.448;2023-07-20T18:48:34;1.10;;;1.00;;
1074;SDS011;526;51.392;12.448;2023-07-20T18:51:02;0.97;;;0.93;;
1074;SDS011;526;51.392;12.448;2023-07-20T18:53:32;1.27;;;1.17;;
1074;SDS011;526;51.392;12.448;2023-07-20T18:55:59;1.30;;;1.20;;
1074;SDS011;526;51.392;12.448;2023-07-20T18:58:24;1.00;;;0.90;;
1074;SDS011;526;51.392;12.448;2023-07-20T19:00:50;1.10;;;1.00;;
1074;SDS011;526;51.392;12.448;2023-07-20T19:03:16;1.17;;;1.03;;
1074;SDS011;526;51.392;12.448;2023-07-20T19:05:41;1.00;;;0.90;;
1074;SDS011;526;51.392;12.448;2023-07-20T19:08:09;1.30;;;1.20;;
1074;SDS011;526;51.392;12.448;2023-07-20T19:10:35;1.30;;;1.20;;
1074;SDS011;526;51.392;12.448;2023-07-20T19:13:01;0.90;;;0.90;;
1074;SDS011;526;51.392;12.448;2023-07-20T19:15:29;1.00;;;0.93;;
1074;SDS011;526;51.392;12.448;2023-07-20T19:17:54;1.63;;;1.53;;
1074;SDS011;526;51.392;12.448;2023-07-20T19:20:20;2.03;;;1.20;;
1074;SDS011;526;51.392;12.448;2023-07-20T19:22:45;1.83;;;1.73;;